Terminal Aerodrome Forecast
Issued by NWS

Home | Current Version | Previous Version | Text Only | Print | Product List | Glossary Off
Versions: 1 2 3 4 5 6 7 8 9 10 11 12 13

980
FTUS42 KMHX 080527
TAFPGV
TAF
KPGV 080527Z 0806/0906 33006G15KT P6SM SCT120
     FM080800 32007KT P6SM SCT090
     FM082100 21007KT P6SM VCSH BKN050
      AMD LTD TO CLD VIS AND WIND=

USA.gov is the U.S. government's official web portal to all federal, state and local government web resources and services.